Time;durP1;ratioP1;P1;durP2;ratioP2;P2;SDS_P1;SDS_P2;PMS_P1;PMS_P2;Temp;Humidity;BMP_temperature;BMP_pressure;BME280_temperature;BME280_humidity;BME280_pressure;Samples;Min_cycle;Max_cycle;Signal;HPM_P1;HPM_P2
2023/03/31 00:00:13;;;;;;;2.00;1.50;;;;;;;6.61;47.08;96487.06;5093509;28;20045;-60
2023/03/31 00:02:41;;;;;;;1.70;1.38;;;;;;;6.63;49.65;96485.31;5093634;28;20048;-60
2023/03/31 00:05:09;;;;;;;3.75;1.55;;;;;;;6.63;48.82;96474.03;5093560;28;20040;-59
2023/03/31 00:07:38;;;;;;;2.10;1.30;;;;;;;6.65;48.60;96472.25;5093706;28;20048;-59
2023/03/31 00:10:06;;;;;;;3.90;1.60;;;;;;;6.59;49.60;96467.22;5093689;28;20481;-59
2023/03/31 00:12:34;;;;;;;5.20;1.55;;;;;;;6.59;49.87;96457.66;5093490;28;20063;-60
2023/03/31 00:15:02;;;;;;;3.22;1.48;;;;;;;6.61;48.92;96468.00;5093386;28;20048;-60
2023/03/31 00:17:31;;;;;;;2.30;1.50;;;;;;;6.58;48.42;96471.53;5093338;28;20132;-59
2023/03/31 00:19:59;;;;;;;3.33;1.47;;;;;;;6.55;48.44;96476.81;5093431;28;20048;-59
2023/03/31 00:22:27;;;;;;;4.55;1.77;;;;;;;6.48;48.03;96470.03;5093455;28;20051;-60
2023/03/31 00:24:56;;;;;;;3.42;1.85;;;;;;;6.33;47.53;96461.72;5093199;28;20051;-60
2023/03/31 00:27:23;;;;;;;1.83;1.27;;;;;;;6.37;49.15;96467.69;5093115;28;20040;-60
2023/03/31 00:29:51;;;;;;;3.58;1.98;;;;;;;6.38;48.94;96464.22;5093084;28;20105;-60
2023/03/31 00:32:18;;;;;;;3.88;1.40;;;;;;;6.37;48.88;96460.75;5092943;28;20052;-60
2023/03/31 00:34:46;;;;;;;2.08;1.88;;;;;;;6.34;48.25;96458.22;5093137;28;20100;-59
2023/03/31 00:37:14;;;;;;;2.90;1.40;;;;;;;6.27;47.28;96454.91;5093088;28;20048;-59
2023/03/31 00:39:44;;;;;;;2.58;1.60;;;;;;;6.23;47.53;96463.63;5093262;28;20520;-59
2023/03/31 00:42:13;;;;;;;2.22;1.67;;;;;;;6.22;47.91;96450.69;5093275;28;20131;-60
2023/03/31 00:45:19;;;;;;;3.22;1.55;;;;;;;6.24;49.44;96449.78;5093148;28;20044;-59
2023/03/31 00:47:51;;;;;;;4.15;1.52;;;;;;;6.24;48.78;96454.13;5093132;28;20106;-60
2023/03/31 00:50:21;;;;;;;4.25;1.80;;;;;;;6.20;48.25;96448.13;5093018;28;20066;-60
2023/03/31 00:52:50;;;;;;;2.80;2.05;;;;;;;6.16;49.06;96441.28;5093010;28;20048;-59
2023/03/31 00:55:24;;;;;;;2.63;1.50;;;;;;;6.12;48.35;96432.72;5092917;28;20044;-59
2023/03/31 00:57:52;;;;;;;3.33;1.58;;;;;;;6.01;48.84;96430.31;5092895;28;20588;-59
2023/03/31 01:00:20;;;;;;;3.33;1.52;;;;;;;5.94;48.55;96428.75;5093048;28;20048;-59
2023/03/31 01:02:54;;;;;;;2.47;1.83;;;;;;;5.96;48.83;96431.31;5092843;28;20052;-59
2023/03/31 01:05:26;;;;;;;3.92;3.03;;;;;;;5.87;49.27;96428.00;5092993;28;20083;-59
2023/03/31 01:07:54;;;;;;;8.90;5.80;;;;;;;5.81;50.16;96425.56;5092779;28;20481;-59
2023/03/31 01:10:22;;;;;;;10.55;2.25;;;;;;;5.73;50.21;96420.53;5093009;28;20127;-59
2023/03/31 01:12:52;;;;;;;4.65;2.90;;;;;;;5.61;47.90;96416.44;5092855;28;20090;-59
2023/03/31 01:15:19;;;;;;;4.78;4.07;;;;;;;5.51;48.05;96405.38;5092799;28;20048;-59
2023/03/31 01:17:48;;;;;;;3.88;2.38;;;;;;;5.26;47.65;96402.41;5092882;28;20486;-59
2023/03/31 01:20:28;;;;;;;3.65;3.33;;;;;;;5.01;46.86;96390.75;5092698;28;20574;-59
2023/03/31 01:23:25;;;;;;;3.97;1.80;;;;;;;4.89;49.26;96396.16;5092819;28;20131;-59
2023/03/31 01:26:19;;;;;;;5.72;2.10;;;;;;;4.66;49.95;96398.25;5092643;28;20113;-59
2023/03/31 01:28:56;;;;;;;6.53;1.80;;;;;;;4.53;50.35;96396.75;5092835;28;20053;-59
2023/03/31 01:31:55;;;;;;;9.43;2.05;;;;;;;4.38;50.77;96392.66;5092692;28;20484;-59
2023/03/31 01:34:52;;;;;;;4.03;1.88;;;;;;;4.39;50.23;96395.25;5071391;28;20071;-59
2023/03/31 01:37:51;;;;;;;8.02;2.13;;;;;;;4.35;49.14;96385.81;5092585;28;20484;-59
2023/03/31 01:41:02;;;;;;;1.80;1.42;;;;;;;4.20;48.67;96381.72;5092852;28;20050;-59
2023/03/31 01:43:37;;;;;;;2.40;1.65;;;;;;;4.06;49.45;96373.31;5038881;28;20054;-59
2023/03/31 01:46:14;;;;;;;2.63;1.70;;;;;;;3.94;50.01;96377.78;5096249;28;20375;-59
2023/03/31 01:48:49;;;;;;;2.92;2.13;;;;;;;3.87;50.64;96371.84;5096129;28;20485;-59
2023/03/31 01:51:19;;;;;;;4.45;2.25;;;;;;;3.81;50.91;96368.47;5096220;28;20047;-59
2023/03/31 01:53:53;;;;;;;2.92;1.88;;;;;;;3.74;50.22;96365.97;5096096;28;20048;-59
2023/03/31 01:56:26;;;;;;;3.83;2.05;;;;;;;3.66;50.14;96354.88;5096101;28;20075;-58
2023/03/31 01:59:00;;;;;;;5.90;2.30;;;;;;;3.56;50.60;96355.88;5095874;28;20108;-59
2023/03/31 02:01:34;;;;;;;3.25;1.80;;;;;;;3.40;50.59;96346.56;5095898;28;20050;-59
2023/03/31 02:04:07;;;;;;;3.75;1.58;;;;;;;3.37;50.95;96343.19;5095970;28;20054;-59
2023/03/31 02:06:39;;;;;;;2.72;1.88;;;;;;;3.39;50.83;96355.22;5095909;28;20040;-59
2023/03/31 02:09:10;;;;;;;3.00;2.03;;;;;;;3.45;52.00;96343.94;5095940;28;20046;-59
2023/03/31 02:11:41;;;;;;;1.98;1.38;;;;;;;3.44;52.29;96338.78;5095745;28;20056;-59
2023/03/31 02:14:11;;;;;;;;;;;;;;;3.43;51.75;96339.66;5096237;28;20393;-59
2023/03/31 02:16:46;;;;;;;2.70;1.63;;;;;;;3.37;51.60;96345.78;5095620;28;19920;-59
2023/03/31 02:19:17;;;;;;;2.83;1.77;;;;;;;3.34;52.03;96345.81;5095525;28;20634;-60
2023/03/31 02:21:48;;;;;;;3.90;1.40;;;;;;;3.29;52.04;96338.94;5095544;28;20052;-60
2023/03/31 02:24:17;;;;;;;8.50;2.20;;;;;;;3.30;52.66;96332.03;5095659;28;20167;-59
2023/03/31 02:26:52;;;;;;;2.72;1.33;;;;;;;3.24;53.25;96335.56;5095343;28;20135;-59
2023/03/31 02:29:21;;;;;;;4.32;2.00;;;;;;;3.27;53.40;96335.53;5095645;28;20048;-59
2023/03/31 02:31:52;;;;;;;2.72;1.63;;;;;;;3.31;53.12;96333.75;5095409;28;20052;-59
2023/03/31 02:34:20;;;;;;;3.55;1.65;;;;;;;3.35;52.93;96337.16;5095122;28;20044;-59
2023/03/31 02:36:50;;;;;;;3.17;1.73;;;;;;;3.34;52.92;96338.03;5095140;28;20073;-59
2023/03/31 02:39:21;;;;;;;3.33;1.93;;;;;;;3.39;53.05;96341.41;5095200;28;20058;-59
2023/03/31 02:41:48;;;;;;;2.28;1.80;;;;;;;3.39;54.27;96339.69;5095080;28;20346;-59
2023/03/31 02:44:17;;;;;;;1.92;1.65;;;;;;;3.39;54.36;96334.53;5094996;28;20044;-59
2023/03/31 02:46:47;;;;;;;5.30;2.03;;;;;;;3.32;54.83;96338.06;5095007;28;20090;-59
2023/03/31 02:49:15;;;;;;;2.40;1.80;;;;;;;3.35;55.43;96343.19;5094950;28;20129;-60
2023/03/31 02:52:08;;;;;;;2.10;1.58;;;;;;;3.37;55.58;96341.44;5094973;28;20368;-59
2023/03/31 02:55:11;;;;;;;2.30;1.58;;;;;;;3.41;55.55;96340.50;5094937;28;20040;-59
2023/03/31 02:58:08;;;;;;;4.80;1.73;;;;;;;3.47;54.68;96344.78;5072993;28;20108;-59
2023/03/31 03:00:47;;;;;;;3.20;1.75;;;;;;;3.49;54.55;96343.00;5094765;28;20055;-59
2023/03/31 03:03:29;;;;;;;2.40;1.70;;;;;;;3.52;56.07;96349.88;5094894;28;20044;-60
2023/03/31 03:06:06;;;;;;;2.88;1.42;;;;;;;3.59;55.96;96348.06;5094762;28;20090;-59
2023/03/31 03:08:42;;;;;;;2.40;1.95;;;;;;;3.56;56.17;96354.16;5094559;28;20482;-59
2023/03/31 03:11:20;;;;;;;2.35;1.75;;;;;;;3.56;54.93;96350.69;5094574;28;20048;-59
2023/03/31 03:13:51;;;;;;;3.08;1.67;;;;;;;3.55;54.23;96355.00;5094468;28;20066;-59
2023/03/31 03:16:25;;;;;;;7.30;4.88;;;;;;;3.56;54.62;96356.72;5094511;28;20101;-59
2023/03/31 03:18:59;;;;;;;13.05;7.82;;;;;;;3.58;55.12;96343.78;5094247;28;20144;-59
2023/03/31 03:21:27;;;;;;;8.93;5.03;;;;;;;3.55;55.53;96339.47;5094429;28;20411;-59
2023/03/31 03:23:54;;;;;;;5.25;3.00;;;;;;;3.54;56.22;96336.06;5094285;28;20051;-59
2023/03/31 03:26:23;;;;;;;4.05;2.47;;;;;;;3.64;58.34;96336.78;5094186;28;20052;-59
2023/03/31 03:28:50;;;;;;;2.38;1.48;;;;;;;3.77;58.68;96329.69;5094154;28;20055;-59
2023/03/31 03:31:17;;;;;;;2.88;1.88;;;;;;;3.82;58.79;96336.56;5094056;28;20044;-59
2023/03/31 03:33:45;;;;;;;2.38;1.90;;;;;;;3.87;57.27;96338.19;5093907;28;20078;-59
2023/03/31 03:36:15;;;;;;;3.17;1.95;;;;;;;3.94;56.80;96336.34;5094303;28;20044;-59
2023/03/31 03:38:42;;;;;;;4.43;3.08;;;;;;;4.00;56.48;96341.44;5093920;28;20048;-59
2023/03/31 03:41:09;;;;;;;3.25;2.03;;;;;;;4.06;56.84;96337.06;5093944;28;20501;-59
2023/03/31 03:43:36;;;;;;;3.20;1.60;;;;;;;4.08;57.50;96336.16;5093965;28;20044;-59
2023/03/31 03:46:04;;;;;;;1.80;1.40;;;;;;;4.13;57.09;96333.50;5093950;28;20109;-60
2023/03/31 03:48:31;;;;;;;4.70;2.45;;;;;;;4.20;56.10;96329.06;5094116;28;20417;-59
2023/03/31 03:51:00;;;;;;;3.00;1.90;;;;;;;4.21;56.66;96331.63;5093851;28;20167;-59
2023/03/31 03:53:30;;;;;;;7.00;2.17;;;;;;;4.26;55.61;96324.66;5093858;28;20044;-59
2023/03/31 03:55:58;;;;;;;2.15;1.80;;;;;;;4.22;55.72;96330.78;5093819;28;20051;-60
2023/03/31 03:58:26;;;;;;;2.85;1.83;;;;;;;4.16;56.77;96323.09;5093646;28;20048;-59
2023/03/31 04:00:55;;;;;;;2.30;2.05;;;;;;;4.19;57.19;96324.78;5093617;28;20730;-59
2023/03/31 04:03:22;;;;;;;2.58;2.05;;;;;;;4.24;58.46;96331.59;5093221;28;20052;-59
2023/03/31 04:05:50;;;;;;;3.25;2.33;;;;;;;4.31;58.47;96329.78;5093547;28;20052;-59
2023/03/31 04:08:18;;;;;;;3.22;2.20;;;;;;;4.37;57.99;96324.47;5093603;28;20044;-59
2023/03/31 04:10:48;;;;;;;3.08;2.08;;;;;;;4.42;57.40;96320.06;5093404;28;20047;-59
2023/03/31 04:13:15;;;;;;;4.05;1.83;;;;;;;4.50;58.43;96327.72;5093476;28;20048;-59
2023/03/31 04:15:43;;;;;;;5.38;1.90;;;;;;;4.57;58.23;96337.97;5093357;28;20135;-60
2023/03/31 04:18:21;;;;;;;2.97;1.88;;;;;;;4.63;57.78;96335.25;5093268;28;20051;-60
2023/03/31 04:20:53;;;;;;;2.50;2.00;;;;;;;4.69;58.11;96329.97;5093402;28;20474;-59
2023/03/31 04:23:25;;;;;;;1.88;1.50;;;;;;;4.73;58.45;96330.78;5093413;28;20560;-59
2023/03/31 04:25:54;;;;;;;4.07;1.85;;;;;;;4.77;57.90;96335.88;5093216;28;20055;-59
2023/03/31 04:28:22;;;;;;;3.78;1.73;;;;;;;4.79;59.37;96335.88;5093256;28;20044;-59
2023/03/31 04:30:50;;;;;;;3.70;2.22;;;;;;;4.84;58.79;96336.63;5093274;28;20080;-59
2023/03/31 04:33:18;;;;;;;6.15;1.52;;;;;;;4.91;58.68;96338.22;5092967;28;20048;-59
2023/03/31 04:35:49;;;;;;;4.93;1.60;;;;;;;4.90;58.42;96336.50;5093214;28;20048;-59
2023/03/31 04:38:18;;;;;;;3.78;1.85;;;;;;;4.91;58.74;96325.25;5093043;28;20048;-59
2023/03/31 04:40:48;;;;;;;4.22;1.95;;;;;;;4.95;58.33;96326.06;5093061;28;20048;-59
2023/03/31 04:43:19;;;;;;;3.20;1.70;;;;;;;4.98;58.17;96320.81;5093209;28;20048;-59
2023/03/31 04:45:46;;;;;;;4.55;1.77;;;;;;;5.05;59.17;96324.13;5093112;28;20062;-59
2023/03/31 04:48:14;;;;;;;3.42;2.15;;;;;;;5.07;60.50;96324.97;5093054;28;20079;-59
2023/03/31 04:50:42;;;;;;;6.43;1.95;;;;;;;5.03;59.10;96318.13;5093150;28;20062;-60
2023/03/31 04:53:10;;;;;;;4.97;2.05;;;;;;;5.05;58.71;96318.94;5092962;28;20044;-60
2023/03/31 04:55:38;;;;;;;2.00;1.70;;;;;;;5.06;59.00;96313.72;5093167;28;20047;-59
2023/03/31 04:58:06;;;;;;;5.70;1.73;;;;;;;5.09;58.19;96318.00;5093028;28;20508;-59
2023/03/31 05:00:34;;;;;;;5.35;1.70;;;;;;;5.14;59.95;96318.78;5092992;28;20097;-59
2023/03/31 05:03:02;;;;;;;3.55;1.80;;;;;;;5.20;59.86;96322.13;5092968;28;20052;-59
2023/03/31 05:05:29;;;;;;;4.70;1.95;;;;;;;5.24;59.83;96311.66;5092833;28;20070;-59
2023/03/31 05:07:56;;;;;;;4.78;2.33;;;;;;;5.26;59.48;96312.47;5092910;28;20122;-59
2023/03/31 05:10:24;;;;;;;4.25;1.80;;;;;;;5.28;59.25;96307.25;5092844;28;20052;-59
2023/03/31 05:12:52;;;;;;;6.70;1.70;;;;;;;5.35;59.46;96310.56;5092910;28;20111;-60
2023/03/31 05:15:19;;;;;;;6.07;2.10;;;;;;;5.41;59.41;96305.25;5093128;28;20044;-59
2023/03/31 05:17:48;;;;;;;3.33;1.80;;;;;;;5.46;58.54;96300.84;5096796;28;20143;-59
2023/03/31 05:20:16;;;;;;;4.45;1.70;;;;;;;5.51;57.85;96300.75;5096697;28;20047;-60
2023/03/31 05:22:44;;;;;;;4.60;1.63;;;;;;;5.62;57.16;96300.50;5096652;28;20044;-59
2023/03/31 05:25:13;;;;;;;3.33;2.00;;;;;;;5.74;57.00;96294.16;5096752;28;20047;-60
2023/03/31 05:27:40;;;;;;;5.75;1.95;;;;;;;5.82;58.82;96285.31;5096663;28;20051;-60
2023/03/31 05:30:09;;;;;;;5.68;2.00;;;;;;;5.87;59.69;96282.63;5096652;28;20048;-59
2023/03/31 05:32:36;;;;;;;4.40;2.00;;;;;;;5.96;59.53;96286.75;5096417;28;20040;-59
2023/03/31 05:35:06;;;;;;;3.95;1.95;;;;;;;6.06;58.43;96279.63;5096482;28;20044;-59
2023/03/31 05:37:34;;;;;;;4.35;2.50;;;;;;;6.17;57.90;96269.00;5096461;28;20556;-60
2023/03/31 05:40:03;;;;;;;4.03;2.25;;;;;;;6.31;57.58;96273.81;5096303;28;20058;-59
2023/03/31 05:42:32;;;;;;;4.32;2.33;;;;;;;6.39;55.57;96269.31;5096280;28;20062;-60
2023/03/31 05:45:00;;;;;;;5.13;1.98;;;;;;;6.49;54.02;96274.22;5096136;28;20098;-59
2023/03/31 05:47:27;;;;;;;3.70;1.92;;;;;;;6.57;56.21;96273.13;5096153;28;20123;-59
2023/03/31 05:49:54;;;;;;;4.82;1.73;;;;;;;6.68;57.24;96272.00;5096161;28;20507;-59
2023/03/31 05:52:23;;;;;;;1.95;1.50;;;;;;;6.77;57.01;96270.94;5096180;28;20127;-59
2023/03/31 05:54:51;;;;;;;5.00;1.98;;;;;;;6.82;54.83;96275.09;5096100;28;20040;-59
2023/03/31 05:57:18;;;;;;;4.25;1.90;;;;;;;6.90;57.13;96274.03;5096061;28;20092;-60
2023/03/31 05:59:45;;;;;;;6.00;2.17;;;;;;;6.86;56.65;96269.81;5096098;28;20485;-59
2023/03/31 06:02:13;;;;;;;2.97;2.00;;;;;;;6.98;56.78;96279.03;5095984;28;20550;-59
2023/03/31 06:04:42;;;;;;;5.00;2.13;;;;;;;7.02;56.13;96289.31;5095876;28;20505;-59
2023/03/31 06:07:10;;;;;;;4.88;2.55;;;;;;;7.05;56.44;96284.00;5095919;28;20055;-59
2023/03/31 06:09:38;;;;;;;4.82;2.60;;;;;;;7.12;55.51;96276.88;5095801;28;20127;-59
2023/03/31 06:12:07;;;;;;;5.80;2.47;;;;;;;7.24;54.69;96274.81;5095693;28;20084;-59
2023/03/31 06:14:34;;;;;;;4.40;2.83;;;;;;;7.35;53.29;96282.31;5095629;28;20052;-60
2023/03/31 06:17:01;;;;;;;2.75;2.20;;;;;;;7.38;50.92;96275.28;5095397;28;20055;-60
2023/03/31 06:19:30;;;;;;;3.97;2.20;;;;;;;7.47;48.27;96268.97;5095710;28;20165;-60
2023/03/31 06:21:58;;;;;;;6.20;2.45;;;;;;;7.54;46.01;96277.41;5095608;28;20044;-60
2023/03/31 06:24:25;;;;;;;3.40;1.95;;;;;;;7.59;46.77;96280.75;5095511;28;20040;-59
2023/03/31 06:26:54;;;;;;;4.40;2.33;;;;;;;7.61;46.13;96272.91;5095011;28;20044;-59
2023/03/31 06:29:21;;;;;;;6.38;2.17;;;;;;;7.68;45.74;96275.25;5095392;28;20048;-60
2023/03/31 06:31:49;;;;;;;6.47;1.67;;;;;;;7.70;44.24;96270.84;5095549;28;20126;-60
2023/03/31 06:34:17;;;;;;;4.18;2.30;;;;;;;7.79;43.15;96274.06;5095217;28;20389;-59
2023/03/31 06:36:44;;;;;;;7.95;2.47;;;;;;;7.83;42.56;96273.09;5095334;28;20055;-60
2023/03/31 06:39:12;;;;;;;2.50;1.83;;;;;;;7.88;42.86;96278.97;5095082;28;20105;-60
2023/03/31 06:41:39;;;;;;;10.05;1.80;;;;;;;7.99;42.31;96267.38;5095429;28;20520;-60
2023/03/31 06:44:07;;;;;;;2.20;1.90;;;;;;;8.07;42.69;96260.19;5095061;28;20497;-60
2023/03/31 06:46:35;;;;;;;2.92;1.80;;;;;;;8.15;42.27;96259.91;5094995;28;20048;-60
2023/03/31 06:49:02;;;;;;;2.63;1.90;;;;;;;8.25;42.11;96253.47;5094974;28;20058;-59
2023/03/31 06:51:29;;;;;;;2.92;1.88;;;;;;;8.33;41.87;96259.31;5095092;28;20047;-60
2023/03/31 06:54:00;;;;;;;5.57;2.25;;;;;;;8.41;41.61;96252.97;5094995;28;20084;-59
2023/03/31 06:56:27;;;;;;;;;;;;;;;8.44;41.45;96248.53;5095720;28;20080;-59
2023/03/31 06:58:55;;;;;;;4.15;1.75;;;;;;;8.46;42.14;96246.69;5095015;28;20015;-60
2023/03/31 07:01:23;;;;;;;6.05;2.80;;;;;;;8.49;42.96;96256.16;5094905;28;20078;-59
2023/03/31 07:03:51;;;;;;;6.28;3.05;;;;;;;8.47;44.47;96250.19;5094821;28;20626;-60
2023/03/31 07:06:18;;;;;;;9.20;4.13;;;;;;;8.49;44.97;96257.94;5094840;28;20044;-59
2023/03/31 07:08:45;;;;;;;7.53;3.05;;;;;;;8.48;44.69;96264.91;5094713;28;20477;-59
2023/03/31 07:11:13;;;;;;;7.15;3.08;;;;;;;8.49;46.08;96260.56;5094675;28;20097;-59
2023/03/31 07:13:42;;;;;;;6.88;2.67;;;;;;;8.52;45.39;96270.88;5094663;28;20074;-59
2023/03/31 07:16:12;;;;;;;9.30;3.97;;;;;;;8.50;43.75;96268.31;5094510;28;20085;-59
2023/03/31 07:18:41;;;;;;;5.38;2.67;;;;;;;8.52;44.35;96268.28;5094441;28;20044;-60
2023/03/31 07:21:11;;;;;;;4.03;2.55;;;;;;;8.47;44.65;96252.78;5094403;28;20093;-60
2023/03/31 07:23:41;;;;;;;;;;;;;;;8.58;43.62;96247.25;5094738;28;20117;-59
2023/03/31 07:26:08;;;;;;;3.55;2.80;;;;;;;8.55;43.58;96240.34;5094287;28;19920;-60
2023/03/31 07:28:35;;;;;;;10.05;2.72;;;;;;;8.53;43.69;96255.19;5094217;28;20054;-59
2023/03/31 07:31:02;;;;;;;5.75;2.72;;;;;;;8.58;44.45;96249.84;5094176;28;20131;-59
2023/03/31 07:33:30;;;;;;;7.82;2.35;;;;;;;8.68;44.46;96250.38;5093956;28;20051;-60
2023/03/31 07:35:58;;;;;;;4.30;2.30;;;;;;;8.76;42.80;96242.28;5094095;28;20127;-60
2023/03/31 07:38:26;;;;;;;8.45;2.90;;;;;;;8.86;42.87;96248.88;5093263;28;20127;-59
2023/03/31 07:40:53;;;;;;;5.38;2.75;;;;;;;8.91;41.93;96246.94;5093980;28;20083;-59
2023/03/31 07:43:20;;;;;;;4.97;2.72;;;;;;;9.00;41.66;96248.34;5094092;28;20405;-60
2023/03/31 07:45:47;;;;;;;3.50;2.38;;;;;;;9.05;41.44;96248.19;5093801;28;20047;-60
2023/03/31 07:48:14;;;;;;;4.38;2.50;;;;;;;9.05;42.09;96246.44;5093985;28;20170;-59
2023/03/31 07:50:42;;;;;;;4.95;2.30;;;;;;;9.09;41.61;96245.41;5093956;28;20079;-59
2023/03/31 07:53:12;;;;;;;4.00;2.03;;;;;;;9.17;40.63;96239.06;5093944;28;20094;-60
2023/03/31 07:55:40;;;;;;;5.78;1.83;;;;;;;9.28;41.34;96238.66;5093718;28;20071;-59
2023/03/31 07:58:07;;;;;;;2.70;1.90;;;;;;;9.39;40.45;96236.47;5093724;28;20044;-59
2023/03/31 08:00:34;;;;;;;5.47;1.90;;;;;;;9.54;40.97;96239.44;5093739;28;20070;-59
2023/03/31 08:03:02;;;;;;;2.97;2.30;;;;;;;9.67;42.39;96230.22;5093528;28;20510;-59
2023/03/31 08:05:29;;;;;;;3.25;2.45;;;;;;;9.88;42.49;96232.03;5093698;28;20047;-60
2023/03/31 08:07:56;;;;;;;2.75;2.40;;;;;;;10.16;40.82;96230.88;5093642;28;20478;-60
2023/03/31 08:10:26;;;;;;;6.55;3.65;;;;;;;10.54;41.38;96214.53;5093577;28;20044;-59
2023/03/31 08:12:54;;;;;;;5.75;2.33;;;;;;;10.90;39.35;96207.75;5093565;28;20055;-60
2023/03/31 08:15:22;;;;;;;4.45;2.80;;;;;;;11.25;38.95;96205.31;5093417;28;20056;-60
2023/03/31 08:17:50;;;;;;;3.28;2.08;;;;;;;11.59;38.14;96201.09;5093408;28;20086;-59
2023/03/31 08:20:17;;;;;;;3.88;2.00;;;;;;;11.78;34.82;96189.75;5093298;28;20052;-60
2023/03/31 08:22:46;;;;;;;3.70;2.10;;;;;;;11.92;34.93;96186.44;5093473;28;20079;-60
2023/03/31 08:25:14;;;;;;;3.53;1.90;;;;;;;12.01;36.24;96179.88;5093288;28;20131;-59
2023/03/31 08:27:42;;;;;;;5.75;2.33;;;;;;;12.23;36.72;96182.34;5093374;28;20040;-60
2023/03/31 08:30:11;;;;;;;3.95;2.50;;;;;;;12.28;35.67;96174.22;5093280;28;20131;-60
2023/03/31 08:32:39;;;;;;;2.83;2.15;;;;;;;12.23;35.85;96161.38;5092836;28;20466;-60
2023/03/31 08:35:08;;;;;;;6.35;2.20;;;;;;;12.28;35.34;96174.22;5093133;28;20044;-59
2023/03/31 08:37:36;;;;;;;3.78;1.85;;;;;;;12.29;36.11;96160.22;5093325;28;20054;-60
2023/03/31 08:40:06;;;;;;;3.33;1.88;;;;;;;12.40;35.36;96164.88;5093117;28;20441;-59
2023/03/31 08:42:39;;;;;;;2.15;1.70;;;;;;;12.69;34.44;96169.53;5093322;28;20074;-59
2023/03/31 08:45:16;;;;;;;4.63;2.72;;;;;;;13.10;35.25;96157.78;5093185;28;20475;-60
2023/03/31 08:47:45;;;;;;;3.58;2.05;;;;;;;13.55;34.46;96159.75;5093112;28;20051;-60
2023/03/31 08:50:16;;;;;;;3.80;1.83;;;;;;;13.75;34.40;96156.00;5094867;28;20139;-59
2023/03/31 08:52:47;;;;;;;5.88;2.25;;;;;;;14.13;33.89;96155.56;5097376;28;20044;-59
2023/03/31 08:55:24;;;;;;;2.92;1.50;;;;;;;14.66;33.79;96151.63;5097261;28;20098;-60
2023/03/31 08:57:58;;;;;;;2.67;2.10;;;;;;;14.74;31.73;96152.00;5097092;28;20044;-59
2023/03/31 09:00:36;;;;;;;2.60;1.95;;;;;;;14.66;33.06;96156.88;5097080;28;20055;-59
2023/03/31 09:03:07;;;;;;;4.18;1.80;;;;;;;14.85;32.58;96150.50;5097129;28;20056;-59
2023/03/31 09:05:54;;;;;;;4.80;2.30;;;;;;;15.11;32.71;96148.06;5097146;28;20051;-59
2023/03/31 09:08:34;;;;;;;4.85;2.20;;;;;;;15.24;31.37;96138.44;5097004;28;20048;-59
2023/03/31 09:11:10;;;;;;;2.80;2.47;;;;;;;15.76;32.55;96127.25;5097092;28;20050;-59
2023/03/31 09:14:04;;;;;;;4.07;2.80;;;;;;;16.16;32.69;96121.13;5096943;28;20285;-59
2023/03/31 09:16:38;;;;;;;6.78;2.00;;;;;;;16.48;33.15;96128.69;5096893;28;20474;-59
2023/03/31 09:19:14;;;;;;;2.17;1.65;;;;;;;16.59;31.59;96125.31;5096894;28;20052;-59
2023/03/31 09:21:44;;;;;;;3.85;1.85;;;;;;;16.44;31.08;96121.06;5096780;28;20044;-59
2023/03/31 09:24:16;;;;;;;4.50;1.90;;;;;;;16.52;30.68;96113.47;5096675;28;20048;-59
2023/03/31 09:26:48;;;;;;;4.95;2.20;;;;;;;16.60;32.25;96108.50;5096581;28;20044;-59
2023/03/31 09:29:18;;;;;;;3.08;1.98;;;;;;;16.83;31.86;96105.22;5096566;28;20059;-59
2023/03/31 09:31:47;;;;;;;3.77;1.80;;;;;;;16.98;32.04;96103.28;5096557;28;20437;-59
2023/03/31 09:34:17;;;;;;;3.65;1.75;;;;;;;17.05;34.88;96102.75;5096322;28;20762;-59
2023/03/31 09:36:45;;;;;;;3.72;2.00;;;;;;;17.31;32.14;96096.56;5096514;28;20127;-59
2023/03/31 09:39:14;;;;;;;5.60;1.95;;;;;;;17.43;34.14;96081.63;5096399;28;20048;-59
2023/03/31 09:41:45;;;;;;;3.03;2.00;;;;;;;17.57;31.72;96082.41;5096330;28;20054;-59
2023/03/31 09:44:24;;;;;;;4.82;1.88;;;;;;;18.00;32.67;96086.28;5096226;28;20048;-59
2023/03/31 09:46:54;;;;;;;3.38;1.73;;;;;;;18.27;30.14;96086.00;5096277;28;20090;-59
2023/03/31 09:49:25;;;;;;;3.70;2.00;;;;;;;17.85;30.08;96064.47;5096275;28;20123;-59
2023/03/31 09:52:02;;;;;;;2.65;2.00;;;;;;;17.85;32.91;96067.13;5096112;28;20059;-59
2023/03/31 09:54:36;;;;;;;4.95;2.00;;;;;;;17.84;32.47;96068.91;5096206;28;20409;-59
2023/03/31 09:57:14;;;;;;;2.67;2.00;;;;;;;17.75;31.66;96062.50;5096136;28;20068;-59
2023/03/31 09:59:42;;;;;;;3.38;2.35;;;;;;;17.70;32.55;96063.81;5096032;28;20052;-59
2023/03/31 10:02:39;;;;;;;3.20;2.08;;;;;;;17.58;33.16;96065.56;5095132;28;20048;-59
2023/03/31 10:05:08;;;;;;;4.93;2.95;;;;;;;17.44;35.11;96062.16;5093764;28;20044;-59
2023/03/31 10:07:38;;;;;;;11.88;2.50;;;;;;;17.37;33.36;96053.81;5095790;28;20127;-59
2023/03/31 10:10:18;;;;;;;4.22;2.20;;;;;;;17.26;34.63;96051.13;5095915;28;20051;-59
2023/03/31 10:12:53;;;;;;;4.75;2.40;;;;;;;17.40;33.93;96042.19;5095746;28;20296;-59
2023/03/31 10:15:22;;;;;;;3.40;2.15;;;;;;;17.58;34.49;96036.50;5095931;28;20517;-59
2023/03/31 10:17:51;;;;;;;4.88;2.10;;;;;;;17.66;34.58;96031.47;5095659;28;20127;-59
2023/03/31 10:20:31;;;;;;;4.63;3.05;;;;;;;17.76;34.91;96042.22;5095596;28;20052;-60
2023/03/31 10:23:04;;;;;;;7.20;2.22;;;;;;;17.96;35.38;96038.03;5095588;28;20056;-59
2023/03/31 10:25:33;;;;;;;4.13;2.78;;;;;;;18.16;35.13;96025.97;5095691;28;20056;-59
2023/03/31 10:28:02;;;;;;;4.47;2.10;;;;;;;17.89;35.92;96023.59;5095425;28;20408;-59
2023/03/31 10:30:36;;;;;;;8.60;2.40;;;;;;;17.92;35.82;96013.63;5095413;28;20044;-59
2023/03/31 10:33:12;;;;;;;3.60;2.50;;;;;;;17.96;36.91;96013.38;5095232;28;20044;-59
2023/03/31 10:35:41;;;;;;;4.72;2.17;;;;;;;18.02;35.41;96013.75;5095266;28;20076;-59
2023/03/31 10:38:14;;;;;;;5.22;2.28;;;;;;;18.08;36.98;96003.66;5095324;28;20048;-59
2023/03/31 10:40:51;;;;;;;6.78;2.38;;;;;;;18.24;37.16;96003.38;5095306;28;20497;-59
2023/03/31 10:43:21;;;;;;;7.13;2.55;;;;;;;18.28;35.29;95999.50;5095104;28;20047;-59
2023/03/31 10:45:50;;;;;;;5.78;2.45;;;;;;;18.49;35.17;95999.63;5095210;28;20106;-60
2023/03/31 10:48:25;;;;;;;3.80;2.03;;;;;;;18.49;34.93;96004.09;5095122;28;20048;-59
2023/03/31 10:50:53;;;;;;;6.47;2.53;;;;;;;18.69;34.13;95997.19;5095090;28;20054;-59
2023/03/31 10:53:20;;;;;;;5.85;2.70;;;;;;;18.78;34.83;96001.75;5094967;28;20051;-59
2023/03/31 10:56:00;;;;;;;8.48;2.70;;;;;;;18.60;33.14;95987.34;5094892;28;20051;-59
2023/03/31 10:58:56;;;;;;;4.93;2.78;;;;;;;18.69;34.54;95979.50;5095130;28;20059;-59
2023/03/31 11:01:33;;;;;;;5.15;3.05;;;;;;;18.64;36.45;95980.84;5094801;28;20469;-59
2023/03/31 11:04:47;;;;;;;6.20;2.67;;;;;;;18.68;34.54;95971.69;5094831;28;20098;-59
2023/03/31 11:07:31;;;;;;;5.20;2.25;;;;;;;18.61;36.61;95970.50;5032815;28;20042;-59
2023/03/31 11:10:17;;;;;;;5.72;2.60;;;;;;;18.89;34.94;95968.25;5032366;28;20053;-60
2023/03/31 11:12:52;;;;;;;7.28;2.78;;;;;;;18.77;34.50;95956.84;5074325;28;20075;-59
2023/03/31 11:15:24;;;;;;;9.25;2.63;;;;;;;18.64;33.45;95960.50;5094476;28;20044;-59
2023/03/31 11:18:04;;;;;;;4.32;2.90;;;;;;;18.38;34.13;95951.97;5094509;28;20044;-59
2023/03/31 11:20:35;;;;;;;;;;;;;;;18.02;35.52;95944.13;5094924;28;20047;-59
2023/03/31 11:23:14;;;;;;;7.13;3.03;;;;;;;17.75;34.96;95935.56;5094478;28;19920;-59
2023/03/31 11:25:53;;;;;;;6.22;2.78;;;;;;;17.73;36.31;95941.94;5094389;28;20075;-59
2023/03/31 11:28:33;;;;;;;5.85;2.50;;;;;;;17.55;36.55;95931.81;5094420;28;20044;-60
2023/03/31 11:31:13;;;;;;;9.13;3.27;;;;;;;17.42;35.94;95927.44;5094601;28;20040;-59
2023/03/31 11:33:57;;;;;;;5.77;2.60;;;;;;;17.29;36.39;95935.47;5094240;28;20377;-59
2023/03/31 11:36:40;;;;;;;3.92;3.00;;;;;;;17.27;37.55;95933.88;5094190;28;20485;-59
2023/03/31 11:39:27;;;;;;;3.95;2.88;;;;;;;17.21;37.69;95926.41;5094109;28;20071;-59
2023/03/31 11:41:59;;;;;;;3.85;2.72;;;;;;;17.28;37.74;95920.53;5094084;28;20051;-59
2023/03/31 11:44:32;;;;;;;5.30;3.00;;;;;;;17.38;37.26;95923.34;5093936;28;20101;-59
2023/03/31 11:47:05;;;;;;;6.30;3.33;;;;;;;17.38;37.70;95922.50;5093966;28;20055;-60
2023/03/31 11:49:37;;;;;;;5.72;3.63;;;;;;;17.43;37.30;95923.84;5093920;28;20048;-59
2023/03/31 11:52:09;;;;;;;8.15;3.45;;;;;;;17.53;36.54;95926.63;5093948;28;20484;-59
2023/03/31 11:54:43;;;;;;;3.53;2.95;;;;;;;17.50;36.33;95921.59;5093967;28;20051;-59
2023/03/31 11:57:15;;;;;;;4.70;2.90;;;;;;;17.51;36.89;95922.41;5093750;28;20052;-59
2023/03/31 11:59:45;;;;;;;4.10;2.72;;;;;;;17.60;36.96;95913.78;5093628;28;20055;-60